Time;durP1;ratioP1;P1;durP2;ratioP2;P2;SDS_P1;SDS_P2;PMS_P1;PMS_P2;Temp;Humidity;BMP_temperature;BMP_pressure;BME280_temperature;BME280_humidity;BME280_pressure;Samples;Min_cycle;Max_cycle;Signal;HPM_P1;HPM_P2
2021/09/25 00:02:08;;;;;;;0.70;0.50;;;15.90;99.90;;;;;;5005145;28;20740;-73
2021/09/25 00:04:33;;;;;;;1.00;0.80;;;16.00;99.90;;;;;;5012531;28;20176;-74
2021/09/25 00:07:00;;;;;;;0.73;0.57;;;16.00;99.90;;;;;;5009429;28;20674;-74
2021/09/25 00:09:25;;;;;;;0.70;0.50;;;16.00;99.90;;;;;;5008566;28;20184;-74
2021/09/25 00:11:51;;;;;;;0.80;0.77;;;16.00;99.90;;;;;;5011213;28;20466;-74
2021/09/25 00:14:16;;;;;;;0.70;0.53;;;16.00;99.90;;;;;;5006563;28;20183;-74
2021/09/25 00:16:42;;;;;;;0.70;0.50;;;16.00;99.90;;;;;;5011040;28;20222;-74
2021/09/25 00:19:07;;;;;;;0.70;0.50;;;15.90;99.90;;;;;;5002845;28;20187;-74
2021/09/25 00:21:33;;;;;;;0.93;0.87;;;15.90;99.90;;;;;;5010726;28;20570;-74
2021/09/25 00:23:58;;;;;;;0.90;0.70;;;15.90;99.90;;;;;;5010521;28;20206;-74
2021/09/25 00:26:26;;;;;;;0.90;0.80;;;16.00;99.90;;;;;;5009926;28;20600;-74
2021/09/25 00:28:53;;;;;;;0.70;0.60;;;15.90;99.90;;;;;;4997222;28;20177;-73
2021/09/25 00:31:19;;;;;;;1.00;0.90;;;15.90;99.90;;;;;;5002774;28;20810;-74
2021/09/25 00:33:44;;;;;;;1.20;0.90;;;15.80;99.90;;;;;;5003010;28;20434;-74
2021/09/25 00:36:10;;;;;;;0.70;0.50;;;15.70;99.90;;;;;;5011792;28;20263;-74
2021/09/25 00:38:36;;;;;;;0.70;0.50;;;15.60;99.90;;;;;;5011992;28;20181;-74
2021/09/25 00:41:03;;;;;;;0.80;0.50;;;15.60;99.90;;;;;;4995519;28;20263;-74
2021/09/25 00:43:28;;;;;;;0.80;0.60;;;15.60;99.90;;;;;;5010485;28;20423;-74
2021/09/25 00:45:54;;;;;;;2.70;0.93;;;15.60;99.90;;;;;;5010185;28;20454;-74
2021/09/25 00:48:20;;;;;;;0.90;0.60;;;15.60;99.90;;;;;;5006123;28;20169;-74
2021/09/25 00:50:45;;;;;;;1.23;1.13;;;15.50;99.90;;;;;;4992504;28;20177;-74
2021/09/25 00:53:11;;;;;;;1.67;0.73;;;15.50;99.90;;;;;;5000368;28;20669;-74
2021/09/25 00:55:36;;;;;;;0.80;0.67;;;15.40;99.90;;;;;;4994933;28;20263;-74
2021/09/25 00:58:06;;;;;;;1.93;0.67;;;15.40;99.90;;;;;;4998732;28;20200;-73
2021/09/25 01:00:33;;;;;;;1.83;1.73;;;15.40;99.90;;;;;;5016939;28;20172;-73
2021/09/25 01:02:58;;;;;;;0.70;0.60;;;15.30;99.90;;;;;;5016189;28;20454;-73
2021/09/25 01:05:24;;;;;;;0.90;0.60;;;15.30;99.90;;;;;;5014888;28;20466;-73
2021/09/25 01:07:51;;;;;;;0.90;0.70;;;15.30;99.90;;;;;;5015842;28;20194;-73
2021/09/25 01:10:18;;;;;;;0.70;0.60;;;15.30;99.90;;;;;;4997716;28;20483;-73
2021/09/25 01:12:45;;;;;;;0.80;0.70;;;15.30;99.90;;;;;;5007093;28;20529;-73
2021/09/25 01:15:11;;;;;;;1.47;1.37;;;15.30;99.90;;;;;;5012576;28;20420;-73
2021/09/25 01:17:37;;;;;;;0.80;0.50;;;15.30;99.90;;;;;;5004276;28;20971;-73
2021/09/25 01:20:05;;;;;;;0.80;0.60;;;15.30;99.90;;;;;;5013468;28;20423;-73
2021/09/25 01:22:30;;;;;;;1.30;0.80;;;15.20;99.90;;;;;;4997130;28;20444;-73
2021/09/25 01:24:56;;;;;;;0.80;0.70;;;15.10;99.90;;;;;;5004929;28;20433;-74
2021/09/25 01:27:22;;;;;;;0.70;0.63;;;15.10;99.90;;;;;;5028155;28;20196;-74
2021/09/25 01:29:47;;;;;;;0.70;0.50;;;15.10;99.90;;;;;;5013010;28;20572;-74
2021/09/25 01:32:13;;;;;;;0.70;0.60;;;15.00;99.90;;;;;;5013081;28;20206;-74
2021/09/25 01:34:39;;;;;;;0.70;0.60;;;15.00;99.90;;;;;;5007721;28;20717;-74
2021/09/25 01:37:05;;;;;;;0.70;0.50;;;15.00;99.90;;;;;;5005615;28;20427;-74
2021/09/25 01:39:31;;;;;;;0.97;0.87;;;15.00;99.90;;;;;;5014640;28;20473;-74
2021/09/25 01:41:59;;;;;;;0.80;0.80;;;15.00;99.90;;;;;;5006235;28;20447;-74
2021/09/25 01:44:26;;;;;;;1.00;0.60;;;15.00;99.90;;;;;;5008913;28;20665;-74
2021/09/25 01:46:53;;;;;;;0.70;0.50;;;14.90;99.90;;;;;;4997934;28;20513;-74
2021/09/25 01:49:19;;;;;;;1.40;1.30;;;15.00;99.90;;;;;;5009626;28;20486;-74
2021/09/25 01:51:45;;;;;;;0.97;0.60;;;15.00;99.90;;;;;;4995346;28;20456;-74
2021/09/25 01:54:11;;;;;;;0.70;0.50;;;15.00;99.90;;;;;;5013785;28;20179;-75
2021/09/25 01:56:39;;;;;;;0.70;0.50;;;15.00;99.90;;;;;;5015386;28;20176;-75
2021/09/25 01:59:05;;;;;;;0.70;0.60;;;14.90;99.90;;;;;;5014919;28;20435;-75
2021/09/25 02:01:31;;;;;;;0.83;0.70;;;14.90;99.90;;;;;;5018383;28;20454;-75
2021/09/25 02:03:57;;;;;;;0.80;0.80;;;14.90;99.90;;;;;;5000071;28;20424;-75
2021/09/25 02:06:22;;;;;;;1.30;1.20;;;15.00;99.90;;;;;;5009162;28;20291;-75
2021/09/25 02:08:48;;;;;;;0.70;0.60;;;15.00;99.90;;;;;;5015979;28;20592;-74
2021/09/25 02:11:14;;;;;;;0.70;0.50;;;15.00;99.90;;;;;;5015391;28;20226;-74
2021/09/25 02:13:39;;;;;;;0.80;0.60;;;14.90;99.90;;;;;;5008653;28;20571;-75
2021/09/25 02:16:05;;;;;;;0.80;0.70;;;14.90;99.90;;;;;;4996958;28;20189;-74
2021/09/25 02:18:30;;;;;;;0.70;0.50;;;14.80;99.90;;;;;;5006712;28;20267;-75
2021/09/25 02:20:56;;;;;;;2.20;1.17;;;14.80;99.90;;;;;;5000593;28;20187;-74
2021/09/25 02:23:22;;;;;;;0.80;0.60;;;14.90;99.90;;;;;;5009923;28;20173;-75
2021/09/25 02:25:48;;;;;;;0.80;0.70;;;14.90;99.90;;;;;;5002253;28;20201;-75
2021/09/25 02:28:14;;;;;;;0.70;0.50;;;14.90;99.90;;;;;;4995888;28;20531;-75
2021/09/25 02:30:39;;;;;;;0.70;0.60;;;14.90;99.90;;;;;;4997219;28;20181;-75
2021/09/25 02:33:05;;;;;;;1.10;0.70;;;14.90;99.90;;;;;;5012025;28;20211;-74
2021/09/25 02:35:30;;;;;;;0.70;0.50;;;14.80;99.90;;;;;;5001271;28;20251;-74
2021/09/25 02:37:56;;;;;;;0.70;0.50;;;14.80;99.90;;;;;;5012870;28;20203;-75
2021/09/25 02:40:23;;;;;;;1.13;0.80;;;14.80;99.90;;;;;;5006085;28;20219;-74
2021/09/25 02:42:50;;;;;;;0.97;0.90;;;14.80;99.90;;;;;;4996933;28;20946;-75
2021/09/25 02:45:16;;;;;;;1.27;0.90;;;14.70;99.90;;;;;;5008842;28;20427;-74
2021/09/25 02:47:42;;;;;;;0.77;0.57;;;14.70;99.90;;;;;;5000108;28;20420;-75
2021/09/25 02:50:10;;;;;;;0.80;0.73;;;14.60;99.90;;;;;;5016532;28;20426;-75
2021/09/25 02:52:36;;;;;;;0.80;0.70;;;14.60;99.90;;;;;;5016002;28;20488;-74
2021/09/25 02:55:02;;;;;;;0.70;0.60;;;14.60;99.90;;;;;;5004236;28;20515;-74
2021/09/25 02:57:28;;;;;;;0.80;0.60;;;14.60;99.90;;;;;;5008878;28;20446;-74
2021/09/25 02:59:53;;;;;;;0.80;0.67;;;14.50;99.90;;;;;;4997303;28;20451;-74
2021/09/25 03:02:19;;;;;;;0.80;0.70;;;14.50;99.90;;;;;;4995661;28;20557;-74
2021/09/25 03:04:45;;;;;;;0.80;0.63;;;14.40;99.90;;;;;;5002276;28;20270;-74
2021/09/25 03:07:10;;;;;;;0.70;0.60;;;14.40;99.90;;;;;;5011147;28;20231;-74
2021/09/25 03:09:36;;;;;;;0.70;0.60;;;14.50;99.90;;;;;;5006976;28;20195;-74
2021/09/25 03:12:02;;;;;;;2.60;0.70;;;14.40;99.90;;;;;;5010344;28;20200;-74
2021/09/25 03:14:28;;;;;;;2.40;0.90;;;14.40;99.90;;;;;;5011861;28;20176;-75
2021/09/25 03:16:53;;;;;;;0.70;0.50;;;14.40;99.90;;;;;;5011793;28;20854;-74
2021/09/25 03:19:19;;;;;;;0.70;0.60;;;14.30;99.90;;;;;;5014723;28;20184;-75
2021/09/25 03:21:45;;;;;;;0.70;0.60;;;14.30;99.90;;;;;;5014673;28;20212;-74
2021/09/25 03:24:11;;;;;;;1.33;1.23;;;14.30;99.90;;;;;;5000501;28;20470;-74
2021/09/25 03:26:36;;;;;;;0.70;0.50;;;14.30;99.90;;;;;;5013149;28;20204;-75
2021/09/25 03:29:02;;;;;;;0.77;0.60;;;14.30;99.90;;;;;;5011525;28;20184;-74
2021/09/25 03:31:28;;;;;;;0.80;0.70;;;14.20;99.90;;;;;;5009542;28;20204;-74
2021/09/25 03:33:53;;;;;;;0.70;0.60;;;14.20;99.90;;;;;;5003576;28;20493;-75
2021/09/25 03:36:19;;;;;;;0.70;0.60;;;14.20;99.90;;;;;;5006505;28;20180;-75
2021/09/25 03:38:45;;;;;;;1.00;1.00;;;14.20;99.90;;;;;;5012337;28;20184;-75
2021/09/25 03:41:10;;;;;;;0.70;0.57;;;14.20;99.90;;;;;;5008601;28;20599;-74
2021/09/25 03:43:36;;;;;;;0.70;0.50;;;14.10;99.90;;;;;;5012601;28;20185;-75
2021/09/25 03:46:01;;;;;;;0.70;0.50;;;14.10;99.90;;;;;;5013823;28;20212;-75
2021/09/25 03:48:27;;;;;;;0.80;0.60;;;14.10;99.90;;;;;;5013942;28;20184;-74
2021/09/25 03:50:55;;;;;;;1.33;1.00;;;14.10;99.90;;;;;;5014004;28;20196;-74
2021/09/25 03:53:21;;;;;;;0.70;0.50;;;14.00;99.90;;;;;;5011713;28;20230;-75
2021/09/25 03:55:47;;;;;;;0.70;0.60;;;14.00;99.90;;;;;;5000960;28;20915;-73
2021/09/25 03:58:13;;;;;;;0.70;0.50;;;13.90;99.90;;;;;;5002911;28;20567;-74
2021/09/25 04:00:42;;;;;;;0.90;0.80;;;14.00;99.90;;;;;;5013107;28;20188;-75
2021/09/25 04:03:09;;;;;;;1.20;0.90;;;13.90;99.90;;;;;;5005408;28;20192;-75
2021/09/25 04:05:35;;;;;;;0.90;0.70;;;14.00;99.90;;;;;;5010896;28;20836;-74
2021/09/25 04:08:00;;;;;;;0.93;0.80;;;14.00;99.90;;;;;;5002163;28;20434;-74
2021/09/25 04:10:26;;;;;;;0.80;0.70;;;14.00;99.90;;;;;;5008059;28;20567;-75
2021/09/25 04:12:52;;;;;;;1.27;0.60;;;14.00;99.90;;;;;;5010691;28;20674;-75
2021/09/25 04:15:17;;;;;;;0.70;0.50;;;14.00;99.90;;;;;;5008554;28;20177;-74
2021/09/25 04:17:43;;;;;;;0.70;0.60;;;14.10;99.90;;;;;;5002567;28;20188;-73
2021/09/25 04:20:09;;;;;;;0.70;0.50;;;14.10;99.90;;;;;;5005444;28;20286;-75
2021/09/25 04:22:35;;;;;;;0.70;0.50;;;14.10;99.90;;;;;;5013565;28;20195;-73
2021/09/25 04:25:01;;;;;;;0.93;0.60;;;14.00;99.90;;;;;;5007617;28;20431;-74
2021/09/25 04:27:29;;;;;;;1.17;1.03;;;13.90;99.90;;;;;;4996910;28;20463;-75
2021/09/25 04:29:59;;;;;;;0.70;0.60;;;13.80;99.90;;;;;;5010237;28;20219;-75
2021/09/25 04:32:25;;;;;;;0.90;0.60;;;13.80;99.90;;;;;;5008646;28;20439;-75
2021/09/25 04:34:51;;;;;;;0.70;0.60;;;13.80;99.90;;;;;;4995417;28;20466;-75
2021/09/25 04:37:16;;;;;;;0.73;0.60;;;13.80;99.90;;;;;;4995088;28;20428;-74
2021/09/25 04:39:42;;;;;;;0.70;0.67;;;13.70;99.90;;;;;;5010874;28;20187;-74
2021/09/25 04:42:07;;;;;;;0.70;0.57;;;13.70;99.90;;;;;;5011140;28;20236;-75
2021/09/25 04:44:33;;;;;;;0.70;0.50;;;13.70;99.90;;;;;;5001721;28;20179;-75
2021/09/25 04:46:58;;;;;;;0.80;0.60;;;13.70;99.90;;;;;;4994921;28;20236;-74
2021/09/25 04:49:24;;;;;;;0.70;0.60;;;13.70;99.90;;;;;;5005336;28;20190;-75
2021/09/25 04:51:49;;;;;;;0.93;0.60;;;13.70;99.90;;;;;;5011783;28;20273;-75
2021/09/25 04:54:15;;;;;;;0.70;0.60;;;13.60;99.90;;;;;;5013040;28;20524;-74
2021/09/25 04:56:40;;;;;;;2.20;0.80;;;13.60;99.90;;;;;;5010610;28;20558;-73
2021/09/25 04:59:06;;;;;;;1.63;1.43;;;13.50;99.90;;;;;;5001901;28;20184;-73
2021/09/25 05:01:31;;;;;;;2.10;1.87;;;13.50;99.90;;;;;;4994572;28;20256;-75
2021/09/25 05:04:00;;;;;;;0.90;0.90;;;13.40;99.90;;;;;;5008517;28;20181;-75
2021/09/25 05:06:27;;;;;;;0.70;0.60;;;13.60;99.90;;;;;;5012714;28;20226;-75
2021/09/25 05:08:52;;;;;;;1.60;0.87;;;13.60;99.90;;;;;;5011423;28;20497;-74
2021/09/25 05:11:18;;;;;;;0.70;0.50;;;13.70;99.90;;;;;;5008776;28;20549;-74
2021/09/25 05:13:43;;;;;;;0.90;0.60;;;13.70;99.90;;;;;;5005022;28;20260;-74
2021/09/25 05:16:09;;;;;;;0.70;0.50;;;13.70;99.90;;;;;;5000517;28;20203;-74
2021/09/25 05:18:35;;;;;;;1.57;1.07;;;13.70;99.90;;;;;;5007030;28;20211;-75
2021/09/25 05:21:00;;;;;;;2.10;1.80;;;13.80;99.90;;;;;;4996766;28;20615;-75
2021/09/25 05:23:26;;;;;;;1.10;1.00;;;13.80;99.90;;;;;;5012577;28;20206;-74
2021/09/25 05:25:52;;;;;;;1.07;0.97;;;13.80;99.90;;;;;;5011630;28;20223;-75
2021/09/25 05:28:17;;;;;;;1.30;0.80;;;13.80;99.90;;;;;;5007288;28;20435;-74
2021/09/25 05:30:43;;;;;;;1.70;1.20;;;13.90;99.90;;;;;;5008087;28;20847;-74
2021/09/25 05:33:09;;;;;;;1.27;0.80;;;13.90;99.90;;;;;;5011605;28;20247;-75
2021/09/25 05:35:35;;;;;;;0.80;0.70;;;14.00;99.90;;;;;;5011461;28;20184;-75
2021/09/25 05:38:01;;;;;;;0.80;0.70;;;14.00;99.90;;;;;;5011168;28;20521;-75
2021/09/25 05:40:27;;;;;;;0.70;0.50;;;14.10;99.90;;;;;;5005697;28;20471;-75
2021/09/25 05:42:52;;;;;;;1.53;0.80;;;14.20;99.90;;;;;;5004184;28;20219;-75
2021/09/25 05:45:18;;;;;;;0.80;0.80;;;14.20;99.90;;;;;;5003512;28;20434;-75
2021/09/25 05:47:44;;;;;;;1.50;1.00;;;14.30;99.90;;;;;;5010125;28;20605;-75
2021/09/25 05:50:11;;;;;;;0.80;0.60;;;14.30;99.90;;;;;;5015990;28;20177;-74
2021/09/25 05:52:36;;;;;;;1.20;1.10;;;14.30;99.90;;;;;;5013438;28;20485;-74
2021/09/25 05:55:03;;;;;;;0.73;0.60;;;14.30;99.90;;;;;;5015494;28;20921;-75
2021/09/25 05:57:28;;;;;;;1.87;0.80;;;14.40;99.90;;;;;;5014737;28;20711;-74
2021/09/25 05:59:54;;;;;;;0.70;0.50;;;14.40;99.90;;;;;;5014449;28;20474;-75
2021/09/25 06:02:19;;;;;;;1.53;1.30;;;14.30;99.90;;;;;;5012529;28;20203;-74
2021/09/25 06:04:45;;;;;;;5.03;0.77;;;14.40;99.90;;;;;;5000836;28;20184;-74
2021/09/25 06:07:11;;;;;;;0.70;0.60;;;14.40;99.90;;;;;;5006868;28;20204;-75
2021/09/25 06:09:38;;;;;;;0.70;0.70;;;14.50;99.90;;;;;;5007367;28;20188;-75
2021/09/25 06:12:04;;;;;;;0.80;0.70;;;14.60;99.90;;;;;;5012405;28;20450;-75
2021/09/25 06:14:30;;;;;;;0.70;0.60;;;14.70;99.90;;;;;;5013527;28;20439;-74
2021/09/25 06:16:56;;;;;;;0.70;0.60;;;14.70;99.90;;;;;;5008134;28;20466;-74
2021/09/25 06:19:22;;;;;;;3.30;0.80;;;14.70;99.90;;;;;;5010094;28;20434;-74
2021/09/25 06:21:48;;;;;;;1.20;1.10;;;14.80;99.90;;;;;;5012855;28;20823;-74
2021/09/25 06:24:13;;;;;;;1.83;1.73;;;14.90;99.90;;;;;;5014277;28;20184;-75
2021/09/25 06:26:39;;;;;;;0.80;0.70;;;15.00;99.90;;;;;;5006660;28;20209;-73
2021/09/25 06:29:06;;;;;;;0.90;0.60;;;15.00;99.90;;;;;;5009574;28;20252;-75
2021/09/25 06:31:32;;;;;;;0.80;0.80;;;15.00;99.90;;;;;;4997077;28;20670;-75
2021/09/25 06:33:58;;;;;;;1.63;0.60;;;15.00;99.90;;;;;;5010418;28;20422;-75
2021/09/25 06:36:23;;;;;;;0.70;0.60;;;15.10;99.90;;;;;;5012804;28;20423;-75
2021/09/25 06:38:49;;;;;;;1.47;0.80;;;15.20;99.90;;;;;;5014116;28;20191;-74
2021/09/25 06:41:17;;;;;;;1.20;1.07;;;15.30;99.90;;;;;;5013295;28;20212;-74
2021/09/25 06:43:42;;;;;;;0.80;0.60;;;15.40;99.90;;;;;;5010915;28;20464;-75
2021/09/25 06:46:09;;;;;;;5.53;1.30;;;15.50;99.90;;;;;;5014679;28;20462;-74
2021/09/25 06:48:35;;;;;;;0.97;0.87;;;15.70;99.90;;;;;;5004173;28;20488;-74
2021/09/25 06:51:00;;;;;;;0.70;0.50;;;15.70;99.90;;;;;;5015464;28;20419;-75
2021/09/25 06:53:26;;;;;;;1.00;0.67;;;15.80;99.90;;;;;;5016239;28;20168;-75
2021/09/25 06:55:51;;;;;;;1.67;1.07;;;15.90;99.90;;;;;;5015578;28;20242;-75
2021/09/25 06:58:17;;;;;;;1.20;1.10;;;16.10;99.90;;;;;;5009701;28;20188;-75
2021/09/25 07:00:47;;;;;;;0.70;0.60;;;16.10;99.90;;;;;;5008226;28;20173;-76
2021/09/25 07:03:12;;;;;;;2.83;0.70;;;16.20;99.90;;;;;;5008456;28;20569;-76
2021/09/25 07:05:38;;;;;;;0.70;0.57;;;16.30;99.90;;;;;;5012909;28;20463;-76
2021/09/25 07:08:04;;;;;;;0.70;0.60;;;16.50;99.90;;;;;;4996168;28;20645;-76
2021/09/25 07:10:29;;;;;;;1.40;0.90;;;16.60;99.90;;;;;;4995296;28;20169;-76
2021/09/25 07:12:55;;;;;;;0.70;0.60;;;16.70;99.90;;;;;;5004236;28;20809;-76
2021/09/25 07:15:20;;;;;;;3.90;1.03;;;16.80;99.90;;;;;;5013203;28;20597;-76
2021/09/25 07:17:46;;;;;;;3.47;2.17;;;16.80;99.90;;;;;;4998900;28;20185;-75
2021/09/25 07:20:12;;;;;;;1.23;1.13;;;16.90;99.90;;;;;;4995844;28;20180;-74
2021/09/25 07:22:38;;;;;;;1.63;0.80;;;17.00;99.90;;;;;;4995759;28;20192;-77
2021/09/25 07:25:04;;;;;;;1.83;1.33;;;17.10;99.90;;;;;;5011772;28;20948;-76
2021/09/25 07:27:29;;;;;;;0.90;0.63;;;17.20;99.90;;;;;;5015208;28;20206;-76
2021/09/25 07:29:55;;;;;;;1.37;1.27;;;17.30;99.90;;;;;;5009534;28;20180;-74
2021/09/25 07:32:21;;;;;;;1.10;0.90;;;17.50;99.90;;;;;;4997725;28;20189;-74
2021/09/25 07:34:46;;;;;;;1.20;0.97;;;17.60;99.90;;;;;;5007301;28;20210;-73
2021/09/25 07:37:13;;;;;;;1.30;0.87;;;17.70;99.90;;;;;;4995383;28;20511;-74
2021/09/25 07:39:39;;;;;;;1.17;1.07;;;17.90;99.90;;;;;;5002923;28;20243;-74
2021/09/25 07:42:05;;;;;;;1.17;1.07;;;18.10;99.90;;;;;;4995535;28;20443;-74
2021/09/25 07:44:31;;;;;;;1.40;0.80;;;18.10;99.90;;;;;;5009801;28;20422;-74
2021/09/25 07:46:56;;;;;;;1.17;0.90;;;18.10;99.90;;;;;;5027912;28;20820;-73
2021/09/25 07:49:22;;;;;;;0.80;0.73;;;18.20;99.90;;;;;;5009025;28;20538;-72
2021/09/25 07:51:47;;;;;;;1.50;1.10;;;18.30;99.90;;;;;;5009091;28;20193;-74
2021/09/25 07:54:13;;;;;;;0.80;0.60;;;18.40;99.90;;;;;;4994085;28;20192;-74
2021/09/25 07:56:38;;;;;;;0.97;0.87;;;18.30;99.90;;;;;;5001037;28;20183;-73
2021/09/25 07:59:04;;;;;;;4.30;1.43;;;18.40;99.90;;;;;;5009477;28;20208;-75
2021/09/25 08:01:30;;;;;;;1.77;1.67;;;18.50;99.90;;;;;;5023061;28;20303;-75
2021/09/25 08:03:56;;;;;;;0.73;0.60;;;18.50;99.90;;;;;;5002785;28;20222;-75
2021/09/25 08:06:21;;;;;;;0.80;0.63;;;18.70;99.90;;;;;;5013553;28;20254;-74
2021/09/25 08:08:47;;;;;;;1.77;1.67;;;19.00;99.90;;;;;;5014015;28;20207;-74
2021/09/25 08:11:13;;;;;;;1.20;0.93;;;19.50;99.90;;;;;;5012185;28;20717;-74
2021/09/25 08:13:38;;;;;;;0.90;0.67;;;20.20;99.90;;;;;;4999888;28;20173;-74
2021/09/25 08:16:05;;;;;;;1.60;1.20;;;21.00;99.90;;;;;;4994256;28;20211;-74
2021/09/25 08:18:30;;;;;;;1.40;1.23;;;21.70;99.90;;;;;;5009012;28;20172;-74
2021/09/25 08:20:57;;;;;;;1.20;0.90;;;22.60;99.90;;;;;;5026038;28;20423;-74
2021/09/25 08:23:23;;;;;;;2.80;1.40;;;23.40;99.90;;;;;;5014146;28;20176;-75
2021/09/25 08:25:49;;;;;;;0.90;0.80;;;24.10;99.90;;;;;;5012561;28;20606;-75
2021/09/25 08:28:15;;;;;;;0.90;0.60;;;24.70;99.90;;;;;;4994037;28;20447;-75
2021/09/25 08:30:40;;;;;;;1.37;0.63;;;25.30;99.90;;;;;;4992719;28;20451;-75
2021/09/25 08:33:06;;;;;;;0.87;0.63;;;26.10;99.90;;;;;;5001769;28;20188;-75
2021/09/25 08:35:32;;;;;;;1.20;1.10;;;26.70;99.90;;;;;;5011543;28;20174;-75
2021/09/25 08:37:57;;;;;;;1.10;0.80;;;27.10;99.90;;;;;;5006261;28;20172;-75
2021/09/25 08:40:23;;;;;;;1.47;1.00;;;27.30;99.90;;;;;;4996470;28;20168;-75
2021/09/25 08:42:51;;;;;;;1.40;0.83;;;27.30;99.90;;;;;;4997594;28;20189;-75
2021/09/25 08:45:16;;;;;;;1.67;1.57;;;27.40;99.90;;;;;;4991008;28;20181;-75
2021/09/25 08:47:42;;;;;;;1.00;0.90;;;27.60;99.90;;;;;;4992436;28;20459;-75
2021/09/25 08:50:09;;;;;;;0.90;0.80;;;27.60;99.90;;;;;;5010906;28;20645;-75
2021/09/25 08:52:35;;;;;;;0.90;0.80;;;27.40;99.10;;;;;;5010273;28;20652;-75
2021/09/25 08:55:01;;;;;;;1.83;0.77;;;27.50;99.90;;;;;;5011474;28;20502;-75
2021/09/25 08:57:27;;;;;;;1.93;0.80;;;27.80;99.90;;;;;;5010557;28;20668;-75
2021/09/25 08:59:52;;;;;;;0.80;0.70;;;27.90;97.40;;;;;;5010577;28;20431;-75
2021/09/25 09:02:20;;;;;;;3.43;1.30;;;28.00;99.90;;;;;;5011808;28;20542;-75
2021/09/25 09:04:46;;;;;;;1.20;1.00;;;28.20;94.60;;;;;;5006158;28;20172;-74
2021/09/25 09:07:14;;;;;;;0.90;0.70;;;28.40;92.90;;;;;;4993289;28;20447;-75
2021/09/25 09:09:44;;;;;;;1.03;0.93;;;28.60;93.60;;;;;;5005512;28;20426;-76
2021/09/25 09:12:10;;;;;;;1.10;0.90;;;28.60;93.70;;;;;;4999658;28;20442;-75
2021/09/25 09:14:47;;;;;;;1.23;1.10;;;28.60;91.00;;;;;;4995946;28;20451;-75
2021/09/25 09:17:31;;;;;;;1.20;0.80;;;28.60;90.20;;;;;;5014211;28;20423;-75
2021/09/25 09:19:57;;;;;;;0.90;0.73;;;28.20;90.30;;;;;;4997731;28;20712;-76
2021/09/25 09:22:24;;;;;;;1.40;0.97;;;28.20;91.50;;;;;;5015163;28;20477;-75
2021/09/25 09:24:55;;;;;;;1.33;0.90;;;28.50;93.50;;;;;;5001262;28;20423;-75
2021/09/25 09:27:25;;;;;;;1.10;1.00;;;29.00;91.30;;;;;;5007272;28;20845;-76
2021/09/25 09:30:12;;;;;;;4.30;2.10;;;29.30;88.80;;;;;;5013128;28;20430;-75
2021/09/25 09:32:45;;;;;;;1.20;1.00;;;29.60;84.10;;;;;;5007309;28;20452;-75
2021/09/25 09:35:18;;;;;;;2.30;0.77;;;30.00;84.00;;;;;;5003767;28;21101;-76
2021/09/25 09:37:55;;;;;;;1.00;0.80;;;30.70;81.90;;;;;;5010046;28;20430;-76
2021/09/25 09:40:21;;;;;;;0.90;0.80;;;31.10;79.60;;;;;;5014837;28;20423;-76
2021/09/25 09:42:48;;;;;;;1.20;1.10;;;31.00;72.30;;;;;;5010903;28;20500;-76
2021/09/25 09:45:31;;;;;;;1.67;1.57;;;31.40;73.20;;;;;;5011401;28;20266;-76
2021/09/25 09:47:59;;;;;;;1.70;1.20;;;31.80;70.30;;;;;;5015829;28;20414;-75
2021/09/25 09:50:28;;;;;;;0.90;0.73;;;32.30;68.40;;;;;;5002376;28;20407;-76
2021/09/25 09:52:53;;;;;;;1.30;1.00;;;32.50;66.80;;;;;;5016455;28;21159;-76
2021/09/25 09:55:28;;;;;;;1.33;0.90;;;32.70;65.70;;;;;;5016513;28;20415;-76
2021/09/25 09:58:01;;;;;;;1.67;1.57;;;32.80;61.00;;;;;;5013983;28;20275;-75
2021/09/25 10:00:26;;;;;;;1.60;1.27;;;33.30;63.90;;;;;;4996513;28;20446;-75
2021/09/25 10:02:53;;;;;;;1.67;1.57;;;33.60;62.50;;;;;;4996217;28;20953;-76
2021/09/25 10:05:19;;;;;;;1.10;1.00;;;32.90;59.30;;;;;;5009292;28;20173;-76
2021/09/25 10:07:46;;;;;;;1.47;1.37;;;33.20;61.60;;;;;;5007287;28;20814;-77
2021/09/25 10:10:12;;;;;;;0.90;0.70;;;33.60;61.50;;;;;;4997431;28;20576;-76
2021/09/25 10:12:39;;;;;;;2.60;2.40;;;34.00;60.00;;;;;;5001180;28;20533;-77
2021/09/25 10:15:05;;;;;;;1.17;1.07;;;33.90;59.80;;;;;;5016015;28;20176;-77
2021/09/25 10:17:31;;;;;;;1.10;1.00;;;34.00;58.30;;;;;;5015168;28;20423;-77
2021/09/25 10:19:58;;;;;;;1.07;0.80;;;34.40;58.60;;;;;;5015840;28;20420;-76
2021/09/25 10:22:28;;;;;;;1.10;0.93;;;34.60;56.70;;;;;;5015981;28;20188;-76
2021/09/25 10:24:59;;;;;;;0.90;0.80;;;34.90;57.60;;;;;;5012740;28;20419;-77
2021/09/25 10:27:33;;;;;;;1.00;0.70;;;35.10;56.00;;;;;;5015512;28;20455;-76
2021/09/25 10:30:04;;;;;;;1.20;0.90;;;35.60;55.90;;;;;;5015178;28;20400;-75
2021/09/25 10:32:39;;;;;;;0.90;0.80;;;35.90;56.20;;;;;;4995891;28;20428;-77
2021/09/25 10:35:20;;;;;;;1.83;1.23;;;36.20;53.60;;;;;;4995341;28;20768;-77
2021/09/25 10:37:52;;;;;;;1.00;0.80;;;35.90;51.90;;;;;;4994758;28;20423;-76
2021/09/25 10:40:20;;;;;;;1.23;1.13;;;35.80;51.90;;;;;;4994898;28;20447;-76
2021/09/25 10:42:55;;;;;;;1.40;0.90;;;36.10;53.70;;;;;;4994846;28;20420;-76
2021/09/25 10:45:26;;;;;;;1.00;0.90;;;36.40;52.90;;;;;;5002498;28;20998;-76
2021/09/25 10:48:15;;;;;;;1.60;1.00;;;36.40;53.50;;;;;;5012888;28;20459;-76
2021/09/25 10:51:08;;;;;;;1.40;1.20;;;36.40;52.20;;;;;;5014122;28;20399;-76
2021/09/25 10:53:40;;;;;;;1.20;1.10;;;36.80;52.60;;;;;;5012402;28;20399;-76
2021/09/25 10:56:13;;;;;;;1.17;1.07;;;36.60;51.60;;;;;;5013825;28;20387;-76
2021/09/25 10:58:39;;;;;;;1.20;1.10;;;36.30;50.60;;;;;;5013702;28;20419;-76
2021/09/25 11:01:08;;;;;;;2.33;1.70;;;36.50;51.20;;;;;;5006940;28;20427;-76
2021/09/25 11:03:39;;;;;;;1.20;1.10;;;36.40;50.30;;;;;;5008177;28;20423;-76
2021/09/25 11:06:10;;;;;;;1.40;1.27;;;36.40;50.60;;;;;;5011851;28;20442;-77
2021/09/25 11:08:37;;;;;;;1.20;1.07;;;35.90;50.90;;;;;;5011806;28;20959;-76
2021/09/25 11:11:04;;;;;;;2.53;1.90;;;36.00;51.60;;;;;;5014182;28;20420;-76
2021/09/25 11:14:01;;;;;;;1.30;1.20;;;36.00;50.10;;;;;;5012303;28;20411;-76
2021/09/25 11:17:24;;;;;;;1.53;1.43;;;36.40;52.00;;;;;;5011543;28;20416;-76
2021/09/25 11:20:01;;;;;;;1.60;1.07;;;36.80;51.30;;;;;;4972651;28;20421;-76
2021/09/25 11:22:35;;;;;;;1.00;0.90;;;36.80;51.00;;;;;;5012808;28;20425;-76
2021/09/25 11:25:06;;;;;;;1.23;1.13;;;36.80;50.30;;;;;;5013204;28;20545;-76
2021/09/25 11:27:37;;;;;;;2.17;1.10;;;37.20;50.70;;;;;;5011681;28;20485;-76
2021/09/25 11:30:25;;;;;;;2.80;1.00;;;36.40;48.60;;;;;;5013127;28;20415;-76
2021/09/25 11:32:53;;;;;;;1.43;1.33;;;36.40;49.70;;;;;;5011650;28;20443;-76
2021/09/25 11:35:27;;;;;;;1.13;1.03;;;36.60;50.70;;;;;;5007816;28;20485;-76
2021/09/25 11:37:59;;;;;;;1.10;0.90;;;36.80;49.70;;;;;;5004198;28;20912;-76
2021/09/25 11:40:31;;;;;;;1.07;0.97;;;36.80;49.20;;;;;;4997463;28;20860;-76
2021/09/25 11:43:01;;;;;;;1.67;1.57;;;36.40;49.80;;;;;;4993976;28;20440;-77
2021/09/25 11:45:29;;;;;;;1.57;1.20;;;36.50;49.50;;;;;;5005602;28;20446;-76
2021/09/25 11:47:55;;;;;;;1.10;1.00;;;36.40;48.50;;;;;;5000456;28;20405;-76
2021/09/25 11:50:24;;;;;;;1.60;1.07;;;36.30;49.00;;;;;;4993450;28;20403;-76
2021/09/25 11:53:03;;;;;;;1.10;1.00;;;36.20;49.40;;;;;;4998005;28;20243;-75
2021/09/25 11:55:30;;;;;;;1.53;1.00;;;36.40;49.00;;;;;;4997011;28;20412;-77
2021/09/25 11:57:58;;;;;;;1.90;1.80;;;36.70;49.50;;;;;;5004143;28;20439;-77
2021/09/25 12:00:45;;;;;;;0.90;0.80;;;36.50;48.00;;;;;;4995580;28;20431;-76
2021/09/25 12:03:12;;;;;;;1.00;0.90;;;37.00;49.70;;;;;;5012153;28;20462;-76
2021/09/25 12:05:40;;;;;;;1.20;1.10;;;37.20;49.00;;;;;;5009723;28;20466;-77
2021/09/25 12:08:09;;;;;;;1.20;1.10;;;37.20;47.90;;;;;;5000556;28;20420;-76
2021/09/25 12:10:48;;;;;;;1.10;0.97;;;36.80;48.00;;;;;;4992235;28;20408;-76
2021/09/25 12:13:19;;;;;;;1.30;1.20;;;36.80;49.10;;;;;;4992967;28;20427;-76
2021/09/25 12:15:46;;;;;;;1.00;0.90;;;36.00;47.70;;;;;;4993510;28;20418;-77
2021/09/25 12:18:24;;;;;;;1.67;0.93;;;35.80;47.70;;;;;;5007844;28;20411;-76
2021/09/25 12:20:57;;;;;;;1.00;0.90;;;35.90;48.40;;;;;;5011557;28;20450;-77
2021/09/25 12:23:36;;;;;;;1.10;0.80;;;35.80;48.70;;;;;;5007265;28;20456;-76
2021/09/25 12:26:16;;;;;;;1.23;1.13;;;35.40;48.20;;;;;;4998234;28;20457;-76
2021/09/25 12:28:46;;;;;;;1.10;1.00;;;35.40;51.30;;;;;;5002754;28;20535;-75
2021/09/25 12:31:15;;;;;;;1.60;1.10;;;35.30;50.00;;;;;;5004336;28;20778;-76
2021/09/25 12:34:08;;;;;;;1.17;0.93;;;35.10;50.30;;;;;;5007906;28;20901;-76
2021/09/25 12:36:40;;;;;;;1.10;0.83;;;35.50;50.50;;;;;;5009756;28;20428;-77
2021/09/25 12:39:10;;;;;;;1.00;0.90;;;35.20;49.40;;;;;;5003999;28;20434;-76
2021/09/25 12:41:48;;;;;;;1.27;1.00;;;35.20;49.90;;;;;;4994450;28;20816;-76
2021/09/25 12:44:16;;;;;;;1.00;0.83;;;35.20;50.20;;;;;;5004215;28;20462;-75
2021/09/25 12:46:47;;;;;;;1.00;0.90;;;34.90;50.00;;;;;;5003354;28;20679;-75
2021/09/25 12:49:17;;;;;;;1.20;0.80;;;35.00;51.40;;;;;;5012250;28;20415;-78
2021/09/25 12:51:56;;;;;;;0.83;0.70;;;34.70;51.90;;;;;;5006020;28;20857;-76